createdAt,value
2019-05-16T00:00:58.771Z,137.40
2019-05-16T00:03:27.942Z,135.63
2019-05-16T00:05:58.227Z,134.65
2019-05-16T00:08:24.735Z,134.72
2019-05-16T00:10:54.915Z,135.50
2019-05-16T00:13:21.946Z,135.80
2019-05-16T00:15:49.058Z,135.00
2019-05-16T00:18:17.860Z,134.80
2019-05-16T00:20:49.264Z,137.90
2019-05-16T00:23:18.236Z,136.82
2019-05-16T00:25:47.877Z,135.72
2019-05-16T00:28:18.002Z,135.55
2019-05-16T00:30:45.415Z,136.15
2019-05-16T00:33:12.479Z,135.95
2019-05-16T00:35:39.552Z,136.43
2019-05-16T00:38:08.623Z,135.40
2019-05-16T00:40:38.042Z,135.50
2019-05-16T00:43:04.734Z,135.57
2019-05-16T00:45:31.999Z,134.93
2019-05-16T00:47:59.277Z,136.07
2019-05-16T00:50:28.807Z,135.35
2019-05-16T00:52:59.256Z,135.22
2019-05-16T00:55:28.406Z,134.97
2019-05-16T00:57:58.408Z,135.03
2019-05-16T01:00:45.968Z,136.03
2019-05-16T01:03:13.174Z,135.15
2019-05-16T01:05:40.374Z,135.57
2019-05-16T01:08:07.939Z,135.57
2019-05-16T01:10:35.423Z,135.78
2019-05-16T01:13:02.619Z,136.00
2019-05-16T01:15:31.020Z,135.57
2019-05-16T01:17:58.869Z,135.60
2019-05-16T01:20:27.960Z,136.45
2019-05-16T01:22:58.154Z,134.55
2019-05-16T01:25:28.224Z,137.00
2019-05-16T01:27:55.441Z,136.37
2019-05-16T01:30:22.461Z,134.97
2019-05-16T01:32:49.520Z,135.95
2019-05-16T01:35:18.822Z,134.43
2019-05-16T01:37:45.879Z,134.80
2019-05-16T01:40:13.817Z,134.43
2019-05-16T01:42:40.941Z,134.35
2019-05-16T01:45:09.146Z,135.48
2019-05-16T01:47:36.436Z,135.32
2019-05-16T01:50:04.067Z,134.43
2019-05-16T01:52:32.593Z,135.37
2019-05-16T01:54:59.674Z,135.07
2019-05-16T01:57:28.227Z,134.05
2019-05-16T01:59:55.572Z,134.20
2019-05-16T02:02:22.650Z,134.30
2019-05-16T02:04:49.699Z,134.15
2019-05-16T02:07:18.767Z,135.03
2019-05-16T02:09:47.698Z,134.97
2019-05-16T02:12:18.489Z,134.85
2019-05-16T02:14:45.520Z,135.25
2019-05-16T02:17:13.961Z,134.47
2019-05-16T02:19:40.983Z,134.32
2019-05-16T02:22:09.177Z,134.57
2019-05-16T02:24:38.398Z,134.85
2019-05-16T02:27:05.719Z,134.45
2019-05-16T02:29:32.766Z,134.65
2019-05-16T02:32:02.051Z,133.78
2019-05-16T02:34:30.759Z,133.67
2019-05-16T02:37:18.027Z,134.25
2019-05-16T02:39:26.739Z,133.87
2019-05-16T02:41:54.196Z,134.20
2019-05-16T02:44:24.599Z,133.95
2019-05-16T02:46:50.925Z,133.52
2019-05-16T02:49:21.414Z,134.43
2019-05-16T02:51:47.236Z,133.87
2019-05-16T02:54:15.547Z,134.87
2019-05-16T02:56:42.571Z,134.70
2019-05-16T02:59:11.903Z,135.32
2019-05-16T03:01:40.939Z,135.28
2019-05-16T03:04:10.785Z,135.55
2019-05-16T03:06:40.854Z,135.07
2019-05-16T03:09:07.102Z,133.40
2019-05-16T03:11:34.602Z,136.88
2019-05-16T03:14:03.476Z,134.80
2019-05-16T03:16:31.910Z,135.78
2019-05-16T03:19:01.767Z,135.97
2019-05-16T03:21:56.170Z,135.68
2019-05-16T03:25:16.054Z,135.45
2019-05-16T03:27:51.242Z,135.65
2019-05-16T03:30:23.344Z,136.32
2019-05-16T03:32:47.088Z,134.07
2019-05-16T03:35:16.881Z,136.32
2019-05-16T03:37:55.020Z,135.60
2019-05-16T03:40:14.966Z,135.35
2019-05-16T03:42:42.166Z,136.70
2019-05-16T03:45:10.773Z,135.40
2019-05-16T03:47:42.256Z,135.22
2019-05-16T03:50:10.853Z,133.52
2019-05-16T03:52:40.217Z,135.22
2019-05-16T03:55:05.938Z,134.93
2019-05-16T03:57:33.042Z,134.27
2019-05-16T04:00:00.847Z,134.35
2019-05-16T04:02:31.039Z,134.52
2019-05-16T04:05:02.432Z,134.30
2019-05-16T04:07:31.993Z,134.10
2019-05-16T04:10:02.157Z,134.87
2019-05-16T04:12:30.871Z,133.30
2019-05-16T04:14:57.587Z,133.52
2019-05-16T04:17:25.946Z,133.47
2019-05-16T04:19:52.999Z,133.55
2019-05-16T04:22:21.524Z,134.93
2019-05-16T04:24:51.265Z,134.32
2019-05-16T04:27:21.204Z,133.40
2019-05-16T04:29:46.884Z,135.18
2019-05-16T04:32:14.311Z,134.25
2019-05-16T04:34:43.607Z,134.90
2019-05-16T04:37:11.851Z,135.00
2019-05-16T04:39:41.454Z,134.20
2019-05-16T04:42:10.817Z,134.20
2019-05-16T04:44:37.056Z,135.82
2019-05-16T04:47:11.022Z,134.75
2019-05-16T04:49:41.196Z,134.20
2019-05-16T04:52:11.326Z,134.85
2019-05-16T04:54:42.765Z,135.63
2019-05-16T04:57:13.345Z,134.60
2019-05-16T04:59:46.554Z,135.52
2019-05-16T05:02:21.196Z,136.12
2019-05-16T05:04:50.716Z,136.82
2019-05-16T05:07:16.638Z,134.80
2019-05-16T05:09:51.341Z,136.92
2019-05-16T05:12:20.810Z,135.90
2019-05-16T05:14:47.492Z,136.20
2019-05-16T05:17:15.574Z,138.03
2019-05-16T05:19:42.697Z,135.80
2019-05-16T05:22:11.509Z,137.70
2019-05-16T05:24:40.598Z,136.10
2019-05-16T05:27:07.572Z,136.65
2019-05-16T05:29:35.731Z,136.85
2019-05-16T05:32:04.922Z,135.80
2019-05-16T05:34:34.035Z,137.32
2019-05-16T05:37:01.147Z,138.75
2019-05-16T05:39:30.291Z,137.68
2019-05-16T05:41:59.915Z,138.15
2019-05-16T05:44:26.393Z,135.82
2019-05-16T05:46:53.675Z,135.70
2019-05-16T05:49:20.718Z,137.95
2019-05-16T05:52:06.581Z,138.52
2019-05-16T05:54:36.616Z,135.45
2019-05-16T05:57:03.700Z,136.55
2019-05-16T05:59:30.834Z,138.43
2019-05-16T06:02:00.577Z,139.05
2019-05-16T06:04:26.847Z,138.72
2019-05-16T06:06:53.909Z,138.82
2019-05-16T06:09:28.438Z,141.50
2019-05-16T06:11:50.284Z,138.72
2019-05-16T06:14:17.567Z,136.97
2019-05-16T06:16:46.857Z,137.03
2019-05-16T06:19:13.952Z,138.68
2019-05-16T06:21:44.949Z,138.20
2019-05-16T06:24:10.786Z,138.43
2019-05-16T06:26:39.796Z,139.10
2019-05-16T06:29:06.914Z,138.47
2019-05-16T06:31:34.157Z,137.88
2019-05-16T06:34:07.831Z,137.92
2019-05-16T06:36:30.618Z,137.60
2019-05-16T06:39:00.457Z,137.62
2019-05-16T06:41:30.440Z,136.22
2019-05-16T06:43:59.946Z,137.05
2019-05-16T06:46:30.645Z,136.05
2019-05-16T06:48:59.634Z,137.18
2019-05-16T06:51:26.916Z,136.95
2019-05-16T06:53:54.466Z,136.80
2019-05-16T06:56:23.584Z,136.88
2019-05-16T06:59:01.923Z,135.35
2019-05-16T07:01:29.829Z,137.47
2019-05-16T07:03:57.032Z,137.37
2019-05-16T07:06:47.375Z,137.37
2019-05-16T07:08:53.514Z,137.43
2019-05-16T07:11:20.541Z,137.28
2019-05-16T07:13:51.686Z,140.15
2019-05-16T07:16:16.672Z,139.52
2019-05-16T07:18:44.830Z,139.20
2019-05-16T07:21:11.878Z,138.18
2019-05-16T07:23:40.447Z,138.95
2019-05-16T07:26:09.966Z,137.82
2019-05-16T07:28:40.630Z,137.45
2019-05-16T07:31:15.661Z,137.47
2019-05-16T07:33:40.676Z,138.68
2019-05-16T07:36:09.976Z,137.00
2019-05-16T07:38:40.055Z,137.22
2019-05-16T07:41:07.187Z,137.92
2019-05-16T07:43:36.180Z,137.65
2019-05-16T07:46:03.250Z,138.35
2019-05-16T07:48:31.782Z,138.57
2019-05-16T07:51:00.752Z,139.75
2019-05-16T07:53:32.830Z,138.80
2019-05-16T07:55:56.758Z,137.30
2019-05-16T07:58:23.920Z,137.12
2019-05-16T08:01:02.224Z,137.12
2019-05-16T08:03:20.123Z,137.72
2019-05-16T08:05:50.841Z,137.25
2019-05-16T08:08:16.321Z,138.10
2019-05-16T08:13:13.079Z,140.12
2019-05-16T08:15:41.659Z,139.18
2019-05-16T08:18:11.092Z,140.18
2019-05-16T08:20:37.728Z,139.60
2019-05-16T08:23:04.764Z,140.50
2019-05-16T08:25:34.350Z,140.18
2019-05-16T08:28:02.550Z,138.07
2019-05-16T08:30:36.438Z,139.70
2019-05-16T08:33:05.400Z,140.20
2019-05-16T08:35:32.669Z,140.82
2019-05-16T08:38:01.050Z,140.40
2019-05-16T08:40:31.305Z,142.07
2019-05-16T08:43:00.309Z,142.22
2019-05-16T08:45:26.826Z,140.30
2019-05-16T08:47:54.985Z,140.28
2019-05-16T08:50:05.093Z,138.12
2019-05-16T08:50:23.354Z,139.68
2019-05-16T08:52:52.937Z,140.52
2019-05-16T08:55:21.745Z,141.75
2019-05-16T08:57:53.028Z,142.65
2019-05-16T09:00:21.463Z,142.53
2019-05-16T09:02:47.142Z,144.85
2019-05-16T09:05:14.313Z,143.82
2019-05-16T09:07:45.986Z,145.17
2019-05-16T09:10:45.679Z,143.60
2019-05-16T09:12:47.724Z,143.47
2019-05-16T09:15:16.911Z,142.93
2019-05-16T09:17:43.317Z,140.75
2019-05-16T09:20:11.093Z,141.47
2019-05-16T09:22:38.111Z,141.73
2019-05-16T09:25:08.018Z,141.05
2019-05-16T09:27:34.555Z,139.85
2019-05-16T09:30:01.676Z,140.10
2019-05-16T09:32:28.723Z,142.55
2019-05-16T09:34:57.313Z,140.05
2019-05-16T09:37:26.743Z,141.28
2019-05-16T09:39:59.565Z,141.92
2019-05-16T09:42:27.666Z,140.47
2019-05-16T09:44:57.644Z,140.20
2019-05-16T09:47:24.286Z,139.95
2019-05-16T09:49:51.381Z,140.68
2019-05-16T09:52:18.443Z,141.77
2019-05-16T09:54:46.885Z,141.32
2019-05-16T09:57:14.287Z,140.52
2019-05-16T09:59:41.572Z,141.50
2019-05-16T10:02:08.987Z,144.05
2019-05-16T10:04:36.798Z,141.25
2019-05-16T10:07:06.517Z,140.60
2019-05-16T10:09:44.095Z,139.70
2019-05-16T10:12:11.326Z,140.15
2019-05-16T10:14:32.244Z,139.88
2019-05-16T10:16:59.342Z,140.85
2019-05-16T10:19:27.537Z,140.47
2019-05-16T10:22:00.013Z,141.07
2019-05-16T10:24:26.706Z,140.70
2019-05-16T10:26:54.072Z,143.00
2019-05-16T10:29:22.488Z,143.60
2019-05-16T10:32:18.434Z,144.37
2019-05-16T10:34:46.682Z,142.87
2019-05-16T10:37:14.269Z,145.60
2019-05-16T10:39:41.326Z,143.50
2019-05-16T10:42:23.596Z,143.97
2019-05-16T10:44:38.956Z,144.25
2019-05-16T10:47:07.547Z,145.43
2019-05-16T10:49:38.769Z,144.20
2019-05-16T10:52:03.790Z,143.57
2019-05-16T10:54:30.971Z,144.77
2019-05-16T10:56:58.522Z,143.50
2019-05-16T10:59:56.606Z,146.68
2019-05-16T11:01:56.362Z,143.65
2019-05-16T11:04:31.766Z,143.75
2019-05-16T11:06:53.400Z,144.45
2019-05-16T11:09:22.290Z,143.87
2019-05-16T11:11:49.337Z,143.00
2019-05-16T11:14:17.308Z,144.47
2019-05-16T11:16:47.186Z,143.45
2019-05-16T11:19:20.317Z,141.80
2019-05-16T11:21:43.106Z,141.82
2019-05-16T11:24:13.475Z,144.15
2019-05-16T11:26:40.642Z,142.10
2019-05-16T11:29:11.126Z,143.97
2019-05-16T11:31:38.262Z,144.02
2019-05-16T11:34:05.460Z,143.93
2019-05-16T11:36:32.624Z,145.22
2019-05-16T11:39:01.909Z,146.55
2019-05-16T11:41:30.544Z,146.32
2019-05-16T11:44:00.311Z,146.82
2019-05-16T11:46:29.478Z,148.02
2019-05-16T11:49:08.309Z,149.15
2019-05-16T11:51:38.194Z,147.35
2019-05-16T11:54:13.150Z,144.95
2019-05-16T11:56:42.969Z,144.82
2019-05-16T11:59:31.834Z,148.62
2019-05-16T12:02:33.367Z,143.00
2019-05-16T12:05:04.151Z,143.72
2019-05-16T12:07:35.616Z,147.28
2019-05-16T12:10:07.359Z,143.93
2019-05-16T12:12:33.448Z,143.07
2019-05-16T12:15:01.081Z,144.10
2019-05-16T12:17:36.350Z,144.28
2019-05-16T12:20:13.100Z,143.57
2019-05-16T12:22:48.269Z,144.68
2019-05-16T12:25:22.239Z,145.05
2019-05-16T12:27:50.201Z,147.55
2019-05-16T12:30:18.986Z,146.47
2019-05-16T12:32:47.464Z,145.97
2019-05-16T12:35:17.370Z,146.77
2019-05-16T12:37:47.937Z,146.70
2019-05-16T12:40:16.323Z,146.53
2019-05-16T12:42:55.039Z,147.32
2019-05-16T12:45:27.584Z,150.40
2019-05-16T12:47:54.417Z,150.45
2019-05-16T12:50:21.635Z,148.05
2019-05-16T12:52:50.543Z,148.02
2019-05-16T12:55:17.822Z,146.62
2019-05-16T12:57:48.963Z,149.97
2019-05-16T13:00:19.036Z,148.47
2019-05-16T13:02:47.335Z,151.97
2019-05-16T13:05:50.665Z,153.55
2019-05-16T13:08:17.725Z,148.82
2019-05-16T13:10:48.545Z,147.68
2019-05-16T13:13:17.675Z,148.57
2019-05-16T13:15:47.288Z,147.82
2019-05-16T13:18:14.056Z,145.02
2019-05-16T13:20:41.518Z,146.18
2019-05-16T13:23:14.439Z,144.10
2019-05-16T13:25:39.751Z,143.68
2019-05-16T13:28:08.222Z,144.02
2019-05-16T13:30:37.682Z,143.75
2019-05-16T13:33:07.277Z,144.85
2019-05-16T13:35:37.035Z,144.22
2019-05-16T13:38:03.852Z,143.07
2019-05-16T13:40:32.294Z,143.32
2019-05-16T13:42:59.411Z,144.97
2019-05-16T13:45:29.321Z,144.00
2019-05-16T13:47:57.282Z,144.57
2019-05-16T13:50:27.104Z,144.02
2019-05-16T13:52:54.690Z,145.62
2019-05-16T13:55:23.251Z,145.20
2019-05-16T13:57:50.599Z,143.37
2019-05-16T14:00:18.375Z,142.30
2019-05-16T14:02:47.609Z,143.95
2019-05-16T14:05:20.072Z,143.52
2019-05-16T14:07:48.261Z,143.97
2019-05-16T14:10:18.391Z,142.65
2019-05-16T14:12:49.729Z,142.50
2019-05-16T14:15:19.918Z,143.75
2019-05-16T14:17:49.011Z,143.20
2019-05-16T14:20:18.319Z,142.53
2019-05-16T14:22:57.309Z,141.53
2019-05-16T14:25:26.528Z,141.53
2019-05-16T14:27:53.615Z,142.57
2019-05-16T14:30:22.355Z,143.05
2019-05-16T14:32:50.933Z,141.65
2019-05-16T14:35:18.132Z,142.30
2019-05-16T14:37:46.861Z,141.28
2019-05-16T14:40:17.804Z,141.25
2019-05-16T14:42:47.965Z,141.15
2019-05-16T14:45:19.683Z,140.52
2019-05-16T14:47:53.867Z,143.02
2019-05-16T14:50:21.421Z,141.43
2019-05-16T14:52:48.541Z,141.15
2019-05-16T14:55:18.540Z,142.68
2019-05-16T14:57:51.533Z,140.20
2019-05-16T15:00:52.133Z,142.18
2019-05-16T15:03:19.224Z,141.37
2019-05-16T15:05:48.018Z,142.25
2019-05-16T15:08:47.446Z,143.50
2019-05-16T15:11:17.670Z,139.80
2019-05-16T15:13:43.747Z,142.03
2019-05-16T15:16:17.003Z,141.62
2019-05-16T15:18:47.521Z,141.60
2019-05-16T15:21:17.385Z,143.82
2019-05-16T15:23:45.290Z,141.18
2019-05-16T15:26:12.522Z,142.72
2019-05-16T15:28:39.935Z,143.72
2019-05-16T15:31:07.187Z,144.35
2019-05-16T15:33:36.700Z,143.72
2019-05-16T15:36:08.585Z,143.02
2019-05-16T15:38:39.617Z,145.20
2019-05-16T15:41:36.543Z,139.88
2019-05-16T15:44:38.615Z,139.15
2019-05-16T15:47:09.229Z,143.47
2019-05-16T15:50:07.951Z,140.22
2019-05-16T15:53:07.757Z,141.95
2019-05-16T15:55:47.057Z,139.60
2019-05-16T15:58:18.769Z,140.75
2019-05-16T16:00:48.845Z,139.43
2019-05-16T16:03:19.989Z,138.82
2019-05-16T16:06:07.402Z,138.03
2019-05-16T16:08:47.066Z,141.18
2019-05-16T16:11:23.787Z,141.40
2019-05-16T16:13:53.356Z,143.55
2019-05-16T16:16:24.083Z,142.60
2019-05-16T16:18:51.606Z,142.70
2019-05-16T16:21:21.834Z,141.80
2019-05-16T16:23:50.891Z,140.43
2019-05-16T16:26:18.052Z,139.85
2019-05-16T16:28:45.190Z,139.18
2019-05-16T16:31:12.432Z,137.20
2019-05-16T16:33:39.592Z,137.35
2019-05-16T16:36:07.774Z,137.72
2019-05-16T16:38:39.305Z,136.37
2019-05-16T16:41:39.865Z,138.95
2019-05-16T16:44:23.098Z,138.10
2019-05-16T16:46:50.210Z,138.47
2019-05-16T16:49:20.113Z,138.15
2019-05-16T16:51:48.279Z,138.00
2019-05-16T16:54:17.785Z,137.30
2019-05-16T16:56:55.566Z,136.97
2019-05-16T16:59:28.242Z,139.00
2019-05-16T17:01:57.184Z,139.75
2019-05-16T17:04:26.553Z,137.65
2019-05-16T17:06:53.560Z,137.37
2019-05-16T17:09:26.849Z,137.85
2019-05-16T17:12:06.598Z,138.82
2019-05-16T17:17:38.371Z,140.05
2019-05-16T17:20:09.248Z,139.40
2019-05-16T17:22:46.690Z,137.47
2019-05-16T17:25:15.183Z,137.28
2019-05-16T17:27:43.116Z,137.20
2019-05-16T17:30:16.956Z,137.45
2019-05-16T17:32:44.827Z,137.82
2019-05-16T17:35:18.520Z,135.80
2019-05-16T17:37:46.699Z,137.03
2019-05-16T17:40:17.652Z,138.03
2019-05-16T17:42:44.627Z,137.50
2019-05-16T17:45:18.040Z,137.35
2019-05-16T17:48:12.792Z,139.05
2019-05-16T17:51:17.521Z,139.60
2019-05-16T17:53:53.452Z,138.20
2019-05-16T17:56:41.661Z,136.40
2019-05-16T17:59:17.122Z,138.25
2019-05-16T18:01:46.322Z,136.30
2019-05-16T18:04:13.731Z,139.60
2019-05-16T18:06:47.235Z,139.25
2019-05-16T18:09:17.172Z,136.75
2019-05-16T18:11:47.178Z,135.80
2019-05-16T18:14:19.845Z,137.77
2019-05-16T18:16:58.549Z,137.80
2019-05-16T18:19:26.417Z,137.28
2019-05-16T18:21:53.697Z,138.18
2019-05-16T18:24:23.163Z,137.85
2019-05-16T18:26:53.414Z,139.60
2019-05-16T18:29:21.821Z,139.82
2019-05-16T18:38:28.212Z,141.05
2019-05-16T18:40:56.596Z,142.25
2019-05-16T18:43:36.465Z,139.25
2019-05-16T18:46:07.426Z,137.32
2019-05-16T18:48:36.773Z,138.25
2019-05-16T18:51:06.460Z,139.88
2019-05-16T18:53:39.021Z,135.03
2019-05-16T18:56:08.926Z,137.10
2019-05-16T18:58:39.925Z,134.95
2019-05-16T19:01:18.308Z,137.77
2019-05-16T19:03:49.041Z,137.77
2019-05-16T19:06:16.983Z,137.88
2019-05-16T19:08:51.342Z,136.28
2019-05-16T19:11:24.278Z,137.45
2019-05-16T19:13:51.689Z,136.90
2019-05-16T19:16:21.612Z,138.03
2019-05-16T19:18:48.826Z,136.32
2019-05-16T19:21:21.673Z,134.90
2019-05-16T19:23:48.822Z,138.35
2019-05-16T19:26:18.728Z,137.60
2019-05-16T19:28:46.734Z,137.82
2019-05-16T19:31:16.997Z,134.97
2019-05-16T19:33:48.583Z,136.57
2019-05-16T19:36:19.167Z,135.45
2019-05-16T19:39:07.562Z,136.25
2019-05-16T19:41:38.798Z,136.25
2019-05-16T19:44:10.148Z,137.03
2019-05-16T19:46:46.702Z,137.85
2019-05-16T19:49:15.663Z,135.35
2019-05-16T19:51:46.078Z,139.12
2019-05-16T19:54:17.543Z,136.97
2019-05-16T19:56:46.794Z,134.65
2019-05-16T19:59:14.199Z,137.52
2019-05-16T20:01:41.385Z,137.82
2019-05-16T20:04:08.882Z,137.25
2019-05-16T20:06:40.162Z,135.70
2019-05-16T20:09:16.631Z,137.37
2019-05-16T20:12:04.370Z,134.87
2019-05-16T20:14:33.869Z,136.92
2019-05-16T20:17:07.417Z,138.15
2019-05-16T20:19:36.409Z,136.75
2019-05-16T20:22:04.167Z,136.68
2019-05-16T20:24:31.830Z,137.80
2019-05-16T20:26:59.237Z,138.70
2019-05-16T20:29:29.436Z,137.92
2019-05-16T20:32:07.901Z,137.62
2019-05-16T20:34:41.417Z,136.35
2019-05-16T20:37:09.328Z,137.68
2019-05-16T20:39:37.187Z,138.92
2019-05-16T20:42:07.604Z,138.00
2019-05-16T20:44:37.285Z,136.70
2019-05-16T20:47:10.055Z,139.32
2019-05-16T20:49:38.283Z,137.45
2019-05-16T20:52:07.095Z,136.55
2019-05-16T20:54:37.635Z,138.52
2019-05-16T20:57:06.772Z,137.32
2019-05-16T20:59:33.840Z,140.22
2019-05-16T21:02:01.375Z,139.03
2019-05-16T21:04:30.716Z,138.03
2019-05-16T21:07:09.957Z,137.32
2019-05-16T21:09:33.187Z,138.07
2019-05-16T21:12:02.176Z,136.80
2019-05-16T21:14:29.783Z,138.28
2019-05-16T21:16:57.724Z,136.52
2019-05-16T21:19:25.115Z,136.70
2019-05-16T21:21:53.334Z,137.80
2019-05-16T21:24:22.174Z,138.03
2019-05-16T21:26:51.960Z,138.25
2019-05-16T21:29:19.575Z,138.12
2019-05-16T21:31:47.340Z,136.37
2019-05-16T21:34:16.067Z,138.03
2019-05-16T21:36:46.988Z,138.65
2019-05-16T21:39:17.470Z,138.97
2019-05-16T21:41:47.271Z,138.85
2019-05-16T21:44:18.368Z,139.28
2019-05-16T21:46:46.984Z,137.15
2019-05-16T21:49:19.318Z,137.05
2019-05-16T21:51:48.238Z,137.82
2019-05-16T21:54:15.409Z,137.45
2019-05-16T21:56:43.627Z,137.50
2019-05-16T21:59:12.516Z,137.57
2019-05-16T22:01:40.739Z,139.35
2019-05-16T22:04:07.962Z,138.00
2019-05-16T22:06:36.699Z,138.25
2019-05-16T22:09:06.749Z,138.70
2019-05-16T22:11:37.467Z,138.97
2019-05-16T22:14:06.466Z,137.07
2019-05-16T22:16:37.120Z,139.43
2019-05-16T22:19:06.938Z,138.92
2019-05-16T22:21:35.309Z,138.85
2019-05-16T22:24:06.405Z,140.70
2019-05-16T22:26:37.768Z,141.53
2019-05-16T22:29:06.936Z,142.00
2019-05-16T22:31:36.689Z,141.30
2019-05-16T22:34:03.718Z,140.40
2019-05-16T22:36:32.841Z,140.45
2019-05-16T22:38:59.942Z,141.60
2019-05-16T22:41:26.996Z,139.47
2019-05-16T22:43:54.088Z,139.80
2019-05-16T22:46:21.582Z,138.72
2019-05-16T22:48:50.964Z,140.00
2019-05-16T22:51:18.116Z,139.55
2019-05-16T22:53:45.150Z,141.05
2019-05-16T22:56:12.232Z,138.97
2019-05-16T22:58:39.377Z,140.80
2019-05-16T23:01:07.017Z,139.37
2019-05-16T23:03:35.158Z,138.40
2019-05-16T23:06:03.852Z,140.18
2019-05-16T23:08:30.941Z,139.57
2019-05-16T23:10:58.045Z,139.50
2019-05-16T23:13:26.721Z,140.15
2019-05-16T23:15:54.070Z,138.60
2019-05-16T23:18:21.165Z,138.30
2019-05-16T23:20:48.276Z,139.32
2019-05-16T23:23:17.398Z,138.15
2019-05-16T23:25:46.185Z,139.47
2019-05-16T23:28:17.291Z,139.80
2019-05-16T23:30:44.339Z,139.22
2019-05-16T23:33:11.387Z,139.47
2019-05-16T23:35:38.470Z,139.60
2019-05-16T23:38:16.453Z,138.82
2019-05-16T23:40:34.573Z,139.32
2019-05-16T23:43:02.267Z,141.03
2019-05-16T23:45:29.288Z,139.82
2019-05-16T23:47:57.938Z,139.32
2019-05-16T23:50:27.574Z,137.97
2019-05-16T23:52:56.300Z,138.00
2019-05-16T23:55:27.629Z,139.03
2019-05-16T23:57:53.827Z,138.10
